createdAt,value
2022-08-28T00:01:57.720Z,20.17
2022-08-28T00:04:24.202Z,20.16
2022-08-28T00:06:50.807Z,20.15
2022-08-28T00:09:17.209Z,20.15
2022-08-28T00:11:43.753Z,20.08
2022-08-28T00:14:10.956Z,20.03
2022-08-28T00:16:38.212Z,20.00
2022-08-28T00:19:05.596Z,19.99
2022-08-28T00:21:33.217Z,19.99
2022-08-28T00:24:00.631Z,19.90
2022-08-28T00:26:46.115Z,19.87
2022-08-28T00:29:12.842Z,19.85
2022-08-28T00:31:39.707Z,19.85
2022-08-28T00:34:10.549Z,19.87
2022-08-28T00:36:37.886Z,19.88
2022-08-28T00:39:05.863Z,19.87
2022-08-28T00:41:34.642Z,19.86
2022-08-28T00:44:24.291Z,19.85
2022-08-28T00:46:52.711Z,19.87
2022-08-28T00:49:27.743Z,19.86
2022-08-28T00:52:12.520Z,19.85
2022-08-28T00:54:59.352Z,19.85
2022-08-28T00:57:34.668Z,19.87
2022-08-28T01:00:01.598Z,19.86
2022-08-28T01:02:28.922Z,19.83
2022-08-28T01:04:55.627Z,19.82
2022-08-28T01:07:23.305Z,19.78
2022-08-28T01:09:53.418Z,19.76
2022-08-28T01:12:26.375Z,19.71
2022-08-28T01:14:58.452Z,19.71
2022-08-28T01:17:28.723Z,19.72
2022-08-28T01:19:58.683Z,19.73
2022-08-28T01:22:59.231Z,19.68
2022-08-28T01:25:30.550Z,19.71
2022-08-28T01:27:57.709Z,19.70
2022-08-28T01:30:25.058Z,19.71
2022-08-28T01:32:54.479Z,19.69
2022-08-28T01:35:34.852Z,19.67
2022-08-28T01:38:02.355Z,19.67
2022-08-28T01:40:36.303Z,19.65
2022-08-28T01:43:08.371Z,19.62
2022-08-28T01:45:37.485Z,19.61
2022-08-28T01:48:06.346Z,19.58
2022-08-28T01:50:34.524Z,19.58
2022-08-28T01:53:01.650Z,19.55
2022-08-28T01:55:28.836Z,19.56
2022-08-28T01:57:56.132Z,19.55
2022-08-28T02:00:28.756Z,19.55
2022-08-28T02:02:57.268Z,19.53
2022-08-28T02:05:27.275Z,19.50
2022-08-28T02:07:53.922Z,19.50
2022-08-28T02:10:24.532Z,19.47
2022-08-28T02:12:55.767Z,19.45
2022-08-28T02:15:28.201Z,19.46
2022-08-28T02:17:55.068Z,19.47
2022-08-28T02:20:22.411Z,19.43
2022-08-28T02:22:48.963Z,19.42
2022-08-28T02:25:16.709Z,19.41
2022-08-28T02:27:44.149Z,19.40
2022-08-28T02:30:12.604Z,19.38
2022-08-28T02:32:39.195Z,19.36
2022-08-28T02:35:12.102Z,19.32
2022-08-28T02:37:39.612Z,19.31
2022-08-28T02:40:07.121Z,19.29
2022-08-28T02:42:33.585Z,19.29
2022-08-28T02:45:00.969Z,19.28
2022-08-28T02:47:27.377Z,19.26
2022-08-28T02:49:53.897Z,19.25
2022-08-28T02:52:21.758Z,19.24
2022-08-28T02:54:48.178Z,19.24
2022-08-28T02:57:14.886Z,19.26
2022-08-28T02:59:41.352Z,19.24
2022-08-28T03:02:07.844Z,19.21
2022-08-28T03:04:37.729Z,19.16
2022-08-28T03:07:07.341Z,19.15
2022-08-28T03:09:33.979Z,19.12
2022-08-28T03:12:00.423Z,19.08
2022-08-28T03:14:27.722Z,19.07
2022-08-28T03:16:54.265Z,19.07
2022-08-28T03:19:20.804Z,19.07
2022-08-28T03:21:47.576Z,19.07
2022-08-28T03:24:15.712Z,19.03
2022-08-28T03:26:42.804Z,18.98
2022-08-28T03:29:09.324Z,18.97
2022-08-28T03:31:36.175Z,18.97
2022-08-28T03:34:02.928Z,18.95
2022-08-28T03:36:29.484Z,18.95
2022-08-28T03:38:59.269Z,18.96
2022-08-28T03:41:29.041Z,18.97
2022-08-28T03:43:57.278Z,18.97
2022-08-28T03:46:25.058Z,18.97
2022-08-28T03:48:53.603Z,18.96
2022-08-28T03:51:29.803Z,18.95
2022-08-28T03:53:59.948Z,18.94
2022-08-28T03:56:29.061Z,18.93
2022-08-28T03:58:58.469Z,18.93
2022-08-28T04:01:25.365Z,18.92
2022-08-28T04:03:51.849Z,18.91
2022-08-28T04:06:19.688Z,18.90
2022-08-28T04:08:47.187Z,18.90
2022-08-28T04:11:13.697Z,18.89
2022-08-28T04:13:41.696Z,18.87
2022-08-28T04:16:11.795Z,18.85
2022-08-28T04:18:40.090Z,18.85
2022-08-28T04:21:13.694Z,18.84
2022-08-28T04:23:43.216Z,18.84
2022-08-28T04:26:12.711Z,18.82
2022-08-28T04:28:39.164Z,18.82
2022-08-28T04:31:07.657Z,18.79
2022-08-28T04:33:35.794Z,18.77
2022-08-28T04:36:08.030Z,18.76
2022-08-28T04:38:34.494Z,18.76
2022-08-28T04:41:06.969Z,18.74
2022-08-28T04:43:33.823Z,18.75
2022-08-28T04:46:07.152Z,18.74
2022-08-28T04:48:35.088Z,18.74
2022-08-28T04:51:04.228Z,18.74
2022-08-28T04:53:30.723Z,18.75
2022-08-28T04:55:58.996Z,18.75
2022-08-28T04:58:27.573Z,18.75
2022-08-28T05:00:54.866Z,18.78
2022-08-28T05:03:21.911Z,18.78
2022-08-28T05:05:52.502Z,18.79
2022-08-28T05:08:21.096Z,18.81
2022-08-28T05:10:47.936Z,18.82
2022-08-28T05:13:15.919Z,18.82
2022-08-28T05:15:44.535Z,18.84
2022-08-28T05:18:14.190Z,18.85
2022-08-28T05:20:43.590Z,18.86
2022-08-28T05:23:11.258Z,18.87
2022-08-28T05:25:40.986Z,18.88
2022-08-28T05:28:09.895Z,18.89
2022-08-28T05:30:40.319Z,18.91
2022-08-28T05:33:09.513Z,18.94
2022-08-28T05:35:38.534Z,18.95
2022-08-28T05:38:05.981Z,18.98
2022-08-28T05:40:33.270Z,19.00
2022-08-28T05:42:59.843Z,19.01
2022-08-28T05:45:26.401Z,19.02
2022-08-28T05:47:53.338Z,19.02
2022-08-28T05:50:20.163Z,19.03
2022-08-28T05:52:47.348Z,19.04
2022-08-28T05:55:13.987Z,19.06
2022-08-28T05:57:41.240Z,19.08
2022-08-28T06:00:13.706Z,19.12
2022-08-28T06:02:41.963Z,19.15
2022-08-28T06:05:12.624Z,19.17
2022-08-28T06:07:40.978Z,19.21
2022-08-28T06:10:10.766Z,19.22
2022-08-28T06:12:37.846Z,19.22
2022-08-28T06:15:06.087Z,19.23
2022-08-28T06:17:32.588Z,19.25
2022-08-28T06:19:58.982Z,19.23
2022-08-28T06:22:25.410Z,19.22
2022-08-28T06:24:52.029Z,19.26
2022-08-28T06:27:18.426Z,19.31
2022-08-28T06:29:44.929Z,19.31
2022-08-28T06:32:11.435Z,19.34
2022-08-28T06:34:38.096Z,19.37
2022-08-28T06:37:04.743Z,19.40
2022-08-28T06:39:31.271Z,19.43
2022-08-28T06:41:57.811Z,19.46
2022-08-28T06:44:24.340Z,19.50
2022-08-28T06:46:53.991Z,19.53
2022-08-28T06:49:21.036Z,19.56
2022-08-28T06:51:47.542Z,19.56
2022-08-28T06:54:19.784Z,19.53
2022-08-28T06:56:49.422Z,19.57
2022-08-28T06:59:15.850Z,19.61
2022-08-28T07:01:42.487Z,19.62
2022-08-28T07:04:10.753Z,19.66
2022-08-28T07:06:40.902Z,19.67
2022-08-28T07:09:11.206Z,19.66
2022-08-28T07:11:38.801Z,19.70
2022-08-28T07:14:06.160Z,19.77
2022-08-28T07:16:35.652Z,19.82
2022-08-28T07:19:05.308Z,19.80
2022-08-28T07:21:36.881Z,19.82
2022-08-28T07:24:05.491Z,19.90
2022-08-28T07:26:32.352Z,19.92
2022-08-28T07:29:10.184Z,19.94
2022-08-28T07:31:41.998Z,19.93
2022-08-28T07:34:10.230Z,19.97
2022-08-28T07:36:37.010Z,20.02
2022-08-28T07:39:05.097Z,20.03
2022-08-28T07:41:32.847Z,20.08
2022-08-28T07:44:18.520Z,20.15
2022-08-28T07:46:45.684Z,20.20
2022-08-28T07:49:15.418Z,20.24
2022-08-28T07:51:41.827Z,20.27
2022-08-28T07:54:11.598Z,20.33
2022-08-28T07:56:42.276Z,20.38
2022-08-28T07:59:10.802Z,20.42
2022-08-28T08:01:40.547Z,20.47
2022-08-28T08:04:07.928Z,20.54
2022-08-28T08:06:35.578Z,20.61
2022-08-28T08:09:03.549Z,20.67
2022-08-28T08:11:32.235Z,20.75
2022-08-28T08:14:04.666Z,20.80
2022-08-28T08:16:34.751Z,20.83
2022-08-28T08:19:01.940Z,20.94
2022-08-28T08:21:30.497Z,21.09
2022-08-28T08:23:58.222Z,21.24
2022-08-28T08:26:28.112Z,21.42
2022-08-28T08:28:55.673Z,21.59
2022-08-28T08:31:26.168Z,21.71
2022-08-28T08:33:57.257Z,21.89
2022-08-28T08:36:26.109Z,21.97
2022-08-28T08:38:59.906Z,22.00
2022-08-28T08:41:33.388Z,22.10
2022-08-28T08:44:15.799Z,22.17
2022-08-28T08:46:45.021Z,22.26
2022-08-28T08:49:19.196Z,22.27
2022-08-28T08:52:12.191Z,22.32
2022-08-28T08:54:43.736Z,22.42
2022-08-28T08:57:13.517Z,22.44
2022-08-28T08:59:40.531Z,22.48
2022-08-28T09:02:31.594Z,22.42
2022-08-28T09:05:12.667Z,22.43
2022-08-28T09:07:50.277Z,22.46
2022-08-28T09:10:19.570Z,22.54
2022-08-28T09:13:23.689Z,22.68
2022-08-28T09:15:51.154Z,22.75
2022-08-28T09:18:28.392Z,22.72
2022-08-28T09:20:58.136Z,22.78
2022-08-28T09:23:26.699Z,22.89
2022-08-28T09:26:01.515Z,22.92
2022-08-28T09:28:36.956Z,22.88
2022-08-28T09:31:09.750Z,22.90
2022-08-28T09:33:42.288Z,23.01
2022-08-28T09:36:34.902Z,23.21
2022-08-28T09:39:15.889Z,23.29
2022-08-28T09:42:09.340Z,23.29
2022-08-28T09:45:13.465Z,23.24
2022-08-28T09:47:46.472Z,23.41
2022-08-28T09:50:21.904Z,23.79
2022-08-28T09:52:49.471Z,24.06
2022-08-28T09:55:38.458Z,24.07
2022-08-28T09:58:06.219Z,24.02
2022-08-28T10:00:36.795Z,24.05
2022-08-28T10:03:21.376Z,24.14
2022-08-28T10:06:10.992Z,24.45
2022-08-28T10:08:54.990Z,24.80
2022-08-28T10:11:32.385Z,24.98
2022-08-28T10:14:10.030Z,25.01
2022-08-28T10:17:06.683Z,25.06
2022-08-28T10:19:53.597Z,25.29
2022-08-28T10:22:38.310Z,25.71
2022-08-28T10:25:07.499Z,26.11
2022-08-28T10:27:45.082Z,26.42
2022-08-28T10:30:14.885Z,26.42
2022-08-28T10:33:06.888Z,26.19
2022-08-28T10:35:39.936Z,26.01
2022-08-28T10:38:23.797Z,25.90
2022-08-28T10:41:05.659Z,25.99
2022-08-28T10:43:39.983Z,25.92
2022-08-28T10:46:44.270Z,25.68
2022-08-28T10:49:22.063Z,25.40
2022-08-28T10:52:10.551Z,24.98
2022-08-28T10:54:43.820Z,24.56
2022-08-28T10:57:30.911Z,24.01
2022-08-28T11:00:00.333Z,23.88
2022-08-28T11:02:28.205Z,23.86
2022-08-28T11:04:58.646Z,23.91
2022-08-28T11:07:34.741Z,24.03
2022-08-28T11:10:40.804Z,24.05
2022-08-28T11:13:10.286Z,24.05
2022-08-28T11:15:37.585Z,24.09
2022-08-28T11:18:16.704Z,24.18
2022-08-28T11:21:06.388Z,24.37
2022-08-28T11:23:43.239Z,24.54
2022-08-28T11:26:12.743Z,24.64
2022-08-28T11:28:47.265Z,24.78
2022-08-28T11:31:28.706Z,25.10
2022-08-28T11:33:58.991Z,25.43
2022-08-28T11:36:29.739Z,25.68
2022-08-28T11:38:56.216Z,26.56
2022-08-28T11:41:27.313Z,26.69
2022-08-28T11:44:15.022Z,26.09
2022-08-28T11:46:49.526Z,25.52
2022-08-28T11:49:34.464Z,25.17
2022-08-28T11:52:35.061Z,25.37
2022-08-28T11:55:25.029Z,25.40
2022-08-28T11:58:24.543Z,25.17
2022-08-28T12:00:57.688Z,24.83
2022-08-28T12:03:37.090Z,24.42
2022-08-28T12:06:04.975Z,24.07
2022-08-28T12:08:53.183Z,23.76
2022-08-28T12:11:39.772Z,23.73
2022-08-28T12:14:26.514Z,24.91
2022-08-28T12:16:58.609Z,29.83
2022-08-28T12:19:36.374Z,35.22
2022-08-28T12:22:13.712Z,36.38
2022-08-28T12:25:04.786Z,34.10
2022-08-28T12:27:31.914Z,32.21
2022-08-28T12:30:00.872Z,30.58
2022-08-28T12:32:54.181Z,29.30
2022-08-28T12:35:25.833Z,28.18
2022-08-28T12:37:55.799Z,27.93
2022-08-28T12:40:27.978Z,28.95
2022-08-28T12:42:58.548Z,33.40
2022-08-28T12:45:38.185Z,37.60
2022-08-28T12:48:16.386Z,36.57
2022-08-28T12:50:43.339Z,34.38
2022-08-28T12:53:17.831Z,32.32
2022-08-28T12:55:46.611Z,30.74
2022-08-28T12:58:33.178Z,29.37
2022-08-28T13:01:25.342Z,28.47
2022-08-28T13:03:57.033Z,27.82
2022-08-28T13:06:26.549Z,27.32
2022-08-28T13:09:05.397Z,26.84
2022-08-28T13:11:36.694Z,26.74
2022-08-28T13:14:04.406Z,28.37
2022-08-28T13:16:46.486Z,28.79
2022-08-28T13:19:27.010Z,28.32
2022-08-28T13:22:00.478Z,27.86
2022-08-28T13:24:39.658Z,27.47
2022-08-28T13:27:16.556Z,27.08
2022-08-28T13:30:19.883Z,26.52
2022-08-28T13:33:01.908Z,26.01
2022-08-28T13:35:32.857Z,25.59
2022-08-28T13:38:03.475Z,25.16
2022-08-28T13:43:24.169Z,24.72
2022-08-28T13:45:51.963Z,24.53
2022-08-28T13:48:23.749Z,24.48
2022-08-28T13:50:56.576Z,24.46
2022-08-28T13:53:23.104Z,24.49
2022-08-28T13:55:50.853Z,24.57
2022-08-28T13:58:17.604Z,24.80
2022-08-28T14:00:46.844Z,25.04
2022-08-28T14:03:32.820Z,25.16
2022-08-28T14:05:59.350Z,25.17
2022-08-28T14:08:25.848Z,25.12
2022-08-28T14:10:52.315Z,25.02
2022-08-28T14:13:19.810Z,24.91
2022-08-28T14:15:47.423Z,24.79
2022-08-28T14:18:14.208Z,24.75
2022-08-28T14:20:40.614Z,24.73
2022-08-28T14:23:09.033Z,24.68
2022-08-28T14:25:46.211Z,24.64
2022-08-28T14:28:16.806Z,24.55
2022-08-28T14:30:48.982Z,24.52
2022-08-28T14:33:18.627Z,24.46
2022-08-28T14:35:46.195Z,24.49
2022-08-28T14:38:12.894Z,24.53
2022-08-28T14:40:42.905Z,24.50
2022-08-28T14:43:10.736Z,24.45
2022-08-28T14:45:48.637Z,24.44
2022-08-28T14:48:17.623Z,24.43
2022-08-28T14:50:47.892Z,24.45
2022-08-28T14:53:15.224Z,24.53
2022-08-28T14:55:44.194Z,24.56
2022-08-28T14:58:11.277Z,24.58
2022-08-28T15:00:40.200Z,24.59
2022-08-28T15:03:06.718Z,24.57
2022-08-28T15:05:34.870Z,24.51
2022-08-28T15:08:02.582Z,24.43
2022-08-28T15:10:29.640Z,24.28
2022-08-28T15:12:56.064Z,24.20
2022-08-28T15:15:22.475Z,24.14
2022-08-28T15:17:48.871Z,24.19
2022-08-28T15:20:15.348Z,24.31
2022-08-28T15:22:41.913Z,24.36
2022-08-28T15:25:08.520Z,24.40
2022-08-28T15:27:34.927Z,24.44
2022-08-28T15:30:01.380Z,24.46
2022-08-28T15:32:28.037Z,24.48
2022-08-28T15:34:54.524Z,24.43
2022-08-28T15:37:21.083Z,24.34
2022-08-28T15:40:08.494Z,24.24
2022-08-28T15:42:35.230Z,24.13
2022-08-28T15:45:01.644Z,24.04
2022-08-28T15:47:28.232Z,24.02
2022-08-28T15:49:56.270Z,23.99
2022-08-28T15:52:24.810Z,23.96
2022-08-28T15:54:51.220Z,23.93
2022-08-28T15:57:18.373Z,23.92
2022-08-28T15:59:49.441Z,23.91
2022-08-28T16:02:18.881Z,23.87
2022-08-28T16:04:45.508Z,23.82
2022-08-28T16:07:12.146Z,23.78
2022-08-28T16:09:38.587Z,23.70
2022-08-28T16:12:05.278Z,23.61
2022-08-28T16:14:33.039Z,23.53
2022-08-28T16:16:59.793Z,23.49
2022-08-28T16:19:32.750Z,23.50
2022-08-28T16:21:59.233Z,23.53
2022-08-28T16:24:25.620Z,23.54
2022-08-28T16:26:52.076Z,23.55
2022-08-28T16:29:18.644Z,23.58
2022-08-28T16:31:47.850Z,23.53
2022-08-28T16:34:14.957Z,23.42
2022-08-28T16:36:48.204Z,23.30
2022-08-28T16:39:14.897Z,23.24
2022-08-28T16:41:42.153Z,23.16
2022-08-28T16:44:08.992Z,23.18
2022-08-28T16:46:35.615Z,23.17
2022-08-28T16:49:02.486Z,23.16
2022-08-28T16:51:29.603Z,23.14
2022-08-28T16:53:56.855Z,22.98
2022-08-28T16:56:24.347Z,22.93
2022-08-28T16:58:53.031Z,22.90
2022-08-28T17:01:21.913Z,22.90
2022-08-28T17:03:51.687Z,22.89
2022-08-28T17:06:23.263Z,22.84
2022-08-28T17:08:54.512Z,22.83
2022-08-28T17:11:24.450Z,22.79
2022-08-28T17:13:50.859Z,22.73
2022-08-28T17:16:19.047Z,22.65
2022-08-28T17:18:48.177Z,22.61
2022-08-28T17:21:37.740Z,22.56
2022-08-28T17:24:04.370Z,22.50
2022-08-28T17:26:30.742Z,22.37
2022-08-28T17:28:57.125Z,22.30
2022-08-28T17:31:23.914Z,22.27
2022-08-28T17:33:50.550Z,22.29
2022-08-28T17:36:32.435Z,22.33
2022-08-28T17:39:02.583Z,22.34
2022-08-28T17:41:29.196Z,22.33
2022-08-28T17:43:55.750Z,22.32
2022-08-28T17:46:22.559Z,22.28
2022-08-28T17:48:54.543Z,22.29
2022-08-28T17:51:33.207Z,22.29
2022-08-28T17:54:15.540Z,22.28
2022-08-28T17:56:42.567Z,22.24
2022-08-28T17:59:10.327Z,22.20
2022-08-28T18:01:38.320Z,22.11
2022-08-28T18:04:05.449Z,22.09
2022-08-28T18:06:32.836Z,22.08
2022-08-28T18:09:00.020Z,22.07
2022-08-28T18:11:26.517Z,22.06
2022-08-28T18:13:52.899Z,22.07
2022-08-28T18:16:20.507Z,22.06
2022-08-28T18:18:47.408Z,21.98
2022-08-28T18:21:14.427Z,21.94
2022-08-28T18:23:40.958Z,21.88
2022-08-28T18:26:08.619Z,21.90
2022-08-28T18:28:35.207Z,21.90
2022-08-28T18:31:02.502Z,21.91
2022-08-28T18:33:29.724Z,21.87
2022-08-28T18:35:56.616Z,21.82
2022-08-28T18:38:27.722Z,21.81
2022-08-28T18:40:54.388Z,21.83
2022-08-28T18:43:22.425Z,21.84
2022-08-28T18:45:49.275Z,21.84
2022-08-28T18:48:16.439Z,21.87
2022-08-28T18:50:46.309Z,21.83
2022-08-28T18:53:14.204Z,21.77
2022-08-28T18:55:40.933Z,21.73
2022-08-28T18:58:07.498Z,21.65
2022-08-28T19:00:36.892Z,21.64
2022-08-28T19:03:03.995Z,21.64
2022-08-28T19:05:31.033Z,21.62
2022-08-28T19:08:00.074Z,21.55
2022-08-28T19:10:33.960Z,21.47
2022-08-28T19:13:01.659Z,21.40
2022-08-28T19:15:29.184Z,21.41
2022-08-28T19:17:55.662Z,21.45
2022-08-28T19:20:22.285Z,21.48
2022-08-28T19:22:48.948Z,21.43
2022-08-28T19:25:28.473Z,21.38
2022-08-28T19:28:00.991Z,21.36
2022-08-28T19:30:33.035Z,21.33
2022-08-28T19:33:02.056Z,21.25
2022-08-28T19:35:28.756Z,21.22
2022-08-28T19:37:55.387Z,21.19
2022-08-28T19:40:22.372Z,20.90
2022-08-28T19:42:49.868Z,20.83
2022-08-28T19:45:16.749Z,20.83
2022-08-28T19:47:43.144Z,20.83
2022-08-28T19:50:12.147Z,20.81
2022-08-28T19:52:38.983Z,20.67
2022-08-28T19:55:06.685Z,20.72
2022-08-28T19:57:34.235Z,20.82
2022-08-28T20:00:00.805Z,20.89
2022-08-28T20:02:28.559Z,20.95
2022-08-28T20:04:55.297Z,21.01
2022-08-28T20:07:22.243Z,20.96
2022-08-28T20:09:48.675Z,20.88
2022-08-28T20:12:15.172Z,20.81
2022-08-28T20:14:42.530Z,20.81
2022-08-28T20:17:08.963Z,20.72
2022-08-28T20:19:35.943Z,20.68
2022-08-28T20:22:03.032Z,20.70
2022-08-28T20:24:29.630Z,20.68
2022-08-28T20:26:56.309Z,20.71
2022-08-28T20:29:24.211Z,20.79
2022-08-28T20:31:51.066Z,20.87
2022-08-28T20:34:18.983Z,20.95
2022-08-28T20:36:45.655Z,21.00
2022-08-28T20:39:12.388Z,20.90
2022-08-28T20:41:40.384Z,20.83
2022-08-28T20:44:12.546Z,20.85
2022-08-28T20:46:41.514Z,20.82
2022-08-28T20:49:10.369Z,20.87
2022-08-28T20:51:56.089Z,20.88
2022-08-28T20:54:29.402Z,20.83
2022-08-28T20:56:57.826Z,20.71
2022-08-28T20:59:34.500Z,20.69
2022-08-28T21:02:08.856Z,20.78
2022-08-28T21:04:36.981Z,20.83
2022-08-28T21:07:05.539Z,20.88
2022-08-28T21:09:51.569Z,20.91
2022-08-28T21:12:19.183Z,20.95
2022-08-28T21:14:51.416Z,20.94
2022-08-28T21:17:22.652Z,20.92
2022-08-28T21:19:55.829Z,20.98
2022-08-28T21:22:22.450Z,20.89
2022-08-28T21:24:48.846Z,20.84
2022-08-28T21:27:15.539Z,20.88
2022-08-28T21:29:45.003Z,20.92
2022-08-28T21:32:11.697Z,20.93
2022-08-28T21:34:38.301Z,20.93
2022-08-28T21:37:04.772Z,20.92
2022-08-28T21:39:31.223Z,20.91
2022-08-28T21:41:58.129Z,20.84
2022-08-28T21:44:25.066Z,20.83
2022-08-28T21:46:51.569Z,20.87
2022-08-28T21:49:18.982Z,20.92
2022-08-28T21:51:45.362Z,21.00
2022-08-28T21:54:11.744Z,21.04
2022-08-28T21:56:38.248Z,21.06
2022-08-28T21:59:04.802Z,21.08
2022-08-28T22:01:31.310Z,21.09
2022-08-28T22:03:58.002Z,21.06
2022-08-28T22:06:26.211Z,21.03
2022-08-28T22:08:53.896Z,20.99
2022-08-28T22:11:25.058Z,21.01
2022-08-28T22:13:51.775Z,21.08
2022-08-28T22:16:18.500Z,21.08
2022-08-28T22:18:45.169Z,21.07
2022-08-28T22:21:37.028Z,21.05
2022-08-28T22:24:04.388Z,21.09
2022-08-28T22:26:31.216Z,21.13
2022-08-28T22:28:58.304Z,21.17
2022-08-28T22:31:24.838Z,21.22
2022-08-28T22:33:52.097Z,21.26
2022-08-28T22:36:19.950Z,21.29
2022-08-28T22:38:53.463Z,21.31
2022-08-28T22:41:20.200Z,21.31
2022-08-28T22:43:50.496Z,21.28
2022-08-28T22:46:18.804Z,21.29
2022-08-28T22:48:45.949Z,21.29
2022-08-28T22:51:15.444Z,21.28
2022-08-28T22:53:43.170Z,21.29
2022-08-28T22:56:11.435Z,21.27
2022-08-28T22:58:38.098Z,21.23
2022-08-28T23:01:09.788Z,21.22
2022-08-28T23:03:36.392Z,21.14
2022-08-28T23:06:03.214Z,21.12
2022-08-28T23:08:33.717Z,21.10
2022-08-28T23:11:00.909Z,21.10
2022-08-28T23:13:28.031Z,21.10
2022-08-28T23:15:54.484Z,20.98
2022-08-28T23:18:21.050Z,20.89
2022-08-28T23:20:47.951Z,20.82
2022-08-28T23:23:17.266Z,20.79
2022-08-28T23:25:43.899Z,20.73
2022-08-28T23:28:10.403Z,20.76
2022-08-28T23:30:38.824Z,20.84
2022-08-28T23:33:08.536Z,20.91
2022-08-28T23:35:35.908Z,20.98
2022-08-28T23:38:04.276Z,21.04
2022-08-28T23:40:33.050Z,21.09
2022-08-28T23:43:00.732Z,21.12
2022-08-28T23:45:27.433Z,21.13
2022-08-28T23:47:55.022Z,21.16
2022-08-28T23:50:23.457Z,21.12
2022-08-28T23:52:50.349Z,21.10
2022-08-28T23:55:19.002Z,21.04
2022-08-28T23:57:45.742Z,21.09
